Time;durP1;ratioP1;P1;durP2;ratioP2;P2;SDS_P1;SDS_P2;PMS_P1;PMS_P2;Temp;Humidity;BMP_temperature;BMP_pressure;BME280_temperature;BME280_humidity;BME280_pressure;Samples;Min_cycle;Max_cycle;Signal;HPM_P1;HPM_P2
2024/03/19 00:00:51;;;;;;;13.43;10.35;;;11.20;99.90;;;;;;2092584;28;20074;-66
2024/03/19 00:01:51;;;;;;;15.30;12.45;;;11.20;99.90;;;;;;2093612;28;20472;-65
2024/03/19 00:02:54;;;;;;;14.50;11.77;;;11.20;99.90;;;;;;2092402;28;20024;-64
2024/03/19 00:03:55;;;;;;;14.70;12.25;;;11.30;99.90;;;;;;2091312;28;20056;-66
2024/03/19 00:05:01;;;;;;;16.58;12.45;;;11.30;99.90;;;;;;2092589;28;20032;-66
2024/03/19 00:06:02;;;;;;;18.63;13.60;;;11.20;99.90;;;;;;2095027;28;20488;-65
2024/03/19 00:07:03;;;;;;;15.77;12.73;;;11.30;99.90;;;;;;2094531;28;20452;-65
2024/03/19 00:08:09;;;;;;;16.77;13.45;;;11.20;99.90;;;;;;2093126;28;20397;-65
2024/03/19 00:09:10;;;;;;;17.38;14.10;;;11.20;99.90;;;;;;2092544;28;20033;-67
2024/03/19 00:10:10;;;;;;;19.92;13.15;;;11.30;99.90;;;;;;2094160;28;20480;-71
2024/03/19 00:11:11;;;;;;;19.75;14.50;;;11.20;99.90;;;;;;2093273;28;20052;-65
2024/03/19 00:12:12;;;;;;;16.65;12.50;;;11.20;99.90;;;;;;2094178;28;20028;-64
2024/03/19 00:13:12;;;;;;;18.17;12.70;;;11.20;99.90;;;;;;2093871;28;20044;-64
2024/03/19 00:14:13;;;;;;;22.13;14.75;;;11.30;99.90;;;;;;2093862;28;20027;-63
2024/03/19 00:15:14;;;;;;;13.38;11.52;;;11.20;99.90;;;;;;2100619;28;20516;-65
2024/03/19 00:16:14;;;;;;;16.48;13.23;;;11.20;99.90;;;;;;2100697;28;20464;-65
2024/03/19 00:17:15;;;;;;;17.52;13.60;;;11.20;99.90;;;;;;2092189;28;20508;-65
2024/03/19 00:18:15;;;;;;;17.75;13.93;;;11.30;99.90;;;;;;2091961;28;20017;-64
2024/03/19 00:19:19;;;;;;;16.20;13.00;;;11.30;99.90;;;;;;2092721;28;20127;-64
2024/03/19 00:20:20;;;;;;;15.40;13.73;;;11.30;99.90;;;;;;2091039;28;20564;-65
2024/03/19 00:21:20;;;;;;;14.00;11.27;;;11.30;99.90;;;;;;2094216;28;20393;-63
2024/03/19 00:22:22;;;;;;;18.15;13.48;;;11.30;99.90;;;;;;2093267;28;20031;-63
2024/03/19 00:23:23;;;;;;;17.25;13.18;;;11.30;99.90;;;;;;2092828;28;20108;-64
2024/03/19 00:24:24;;;;;;;15.95;11.35;;;11.30;99.90;;;;;;2095366;28;20036;-64
2024/03/19 00:25:25;;;;;;;15.75;12.27;;;11.30;99.90;;;;;;2100236;28;20040;-65
2024/03/19 00:26:27;;;;;;;17.95;13.07;;;11.30;99.90;;;;;;2101001;28;20020;-66
2024/03/19 00:27:27;;;;;;;19.10;15.05;;;11.30;99.90;;;;;;2091763;28;20032;-65
2024/03/19 00:28:28;;;;;;;20.17;14.13;;;11.30;99.90;;;;;;2092195;28;20054;-67
2024/03/19 00:29:28;;;;;;;18.58;14.13;;;11.30;99.90;;;;;;2092038;28;20052;-65
2024/03/19 00:30:29;;;;;;;19.25;14.88;;;11.30;99.90;;;;;;2093382;28;20392;-65
2024/03/19 00:31:30;;;;;;;18.75;14.15;;;11.30;99.90;;;;;;2091897;28;20056;-64
2024/03/19 00:32:31;;;;;;;21.50;14.90;;;11.30;99.90;;;;;;2092449;28;20029;-66
2024/03/19 00:33:31;;;;;;;19.23;15.10;;;11.30;99.90;;;;;;2092314;28;20031;-65
2024/03/19 00:34:32;;;;;;;23.02;15.00;;;11.20;99.90;;;;;;2093424;28;20111;-65
2024/03/19 00:35:33;;;;;;;20.55;13.82;;;11.20;99.90;;;;;;2093174;28;20082;-65
2024/03/19 00:36:37;;;;;;;22.63;15.70;;;11.30;99.90;;;;;;2094689;28;20382;-65
2024/03/19 00:37:39;;;;;;;17.75;12.85;;;11.30;99.90;;;;;;2095412;28;20120;-65
2024/03/19 00:38:43;;;;;;;20.67;14.15;;;11.30;99.90;;;;;;2091746;28;20036;-65
2024/03/19 00:39:43;;;;;;;18.10;14.05;;;11.30;99.90;;;;;;2093994;28;20029;-64
2024/03/19 00:40:44;;;;;;;20.50;14.77;;;11.30;99.90;;;;;;2093948;28;20401;-64
2024/03/19 00:41:47;;;;;;;17.92;13.60;;;11.20;99.90;;;;;;2093853;28;20025;-67
2024/03/19 00:42:48;;;;;;;20.67;15.10;;;11.30;99.90;;;;;;2093200;28;20032;-65
2024/03/19 00:43:48;;;;;;;19.95;14.73;;;11.30;99.90;;;;;;2094314;28;20032;-64
2024/03/19 00:44:49;;;;;;;20.27;14.48;;;11.30;99.90;;;;;;2092445;28;20501;-64
2024/03/19 00:45:49;;;;;;;21.90;15.77;;;11.30;99.90;;;;;;2094349;28;20040;-65
2024/03/19 00:46:50;;;;;;;18.38;13.65;;;11.30;99.90;;;;;;2091579;28;20017;-65
2024/03/19 00:47:50;;;;;;;15.18;11.73;;;11.30;99.90;;;;;;2095009;28;20111;-65
2024/03/19 00:48:51;;;;;;;20.95;14.85;;;11.30;99.90;;;;;;2093592;28;20090;-64
2024/03/19 00:49:52;;;;;;;20.48;15.68;;;11.30;99.90;;;;;;2095247;28;20029;-65
2024/03/19 00:50:52;;;;;;;22.27;15.40;;;11.30;99.90;;;;;;2095216;28;20032;-65
2024/03/19 00:51:53;;;;;;;21.20;15.77;;;11.30;99.90;;;;;;2095669;28;20455;-66
2024/03/19 00:52:53;;;;;;;19.95;14.68;;;11.30;99.90;;;;;;2096173;28;20024;-65
2024/03/19 00:53:54;;;;;;;21.15;16.27;;;11.30;99.90;;;;;;2092392;28;20049;-65
2024/03/19 00:55:00;;;;;;;21.92;16.00;;;11.30;99.90;;;;;;2093387;28;20028;-65
2024/03/19 00:56:01;;;;;;;19.67;15.57;;;11.30;99.90;;;;;;2093326;28;20089;-65
2024/03/19 00:57:04;;;;;;;17.38;14.05;;;11.30;99.90;;;;;;2092050;28;20382;-65
2024/03/19 00:58:04;;;;;;;20.00;14.93;;;11.30;99.90;;;;;;2093317;28;20028;-65
2024/03/19 00:59:05;;;;;;;22.05;16.20;;;11.30;99.90;;;;;;2093779;28;20035;-65
2024/03/19 01:00:11;;;;;;;23.80;15.27;;;11.30;99.90;;;;;;2091033;28;20133;-65
2024/03/19 01:01:13;;;;;;;19.90;16.48;;;11.30;99.90;;;;;;2092886;28;20533;-65
2024/03/19 01:02:14;;;;;;;21.08;14.88;;;11.30;99.90;;;;;;2094408;28;20028;-64
2024/03/19 01:03:14;;;;;;;20.73;15.43;;;11.30;99.90;;;;;;2094061;28;20045;-66
2024/03/19 01:04:15;;;;;;;22.23;14.88;;;11.30;99.90;;;;;;2093999;28;20029;-64
2024/03/19 01:05:15;;;;;;;18.60;14.15;;;11.30;99.90;;;;;;2092670;28;20032;-64
2024/03/19 01:06:16;;;;;;;20.15;15.48;;;11.30;99.90;;;;;;2093033;28;20121;-64
2024/03/19 01:07:18;;;;;;;21.42;14.95;;;11.30;99.90;;;;;;2093005;28;20024;-65
2024/03/19 01:08:18;;;;;;;20.23;15.80;;;11.30;99.90;;;;;;2093424;28;20070;-71
2024/03/19 01:09:19;;;;;;;23.45;16.25;;;11.30;99.90;;;;;;2094416;28;20020;-71
2024/03/19 01:10:20;;;;;;;22.30;15.52;;;11.30;99.90;;;;;;2093165;28;20055;-65
2024/03/19 01:11:20;;;;;;;22.15;15.70;;;11.30;99.90;;;;;;2092716;28;20108;-71
2024/03/19 01:12:21;;;;;;;19.75;15.50;;;11.30;99.90;;;;;;2093277;28;20021;-72
2024/03/19 01:13:21;;;;;;;21.58;15.32;;;11.30;99.90;;;;;;2092732;28;20115;-72
2024/03/19 01:14:22;;;;;;;23.15;15.13;;;11.30;99.90;;;;;;2093234;28;20021;-71
2024/03/19 01:15:23;;;;;;;21.92;15.23;;;11.30;99.90;;;;;;2093477;28;20454;-72
2024/03/19 01:16:23;;;;;;;16.48;14.07;;;11.30;99.90;;;;;;2093951;28;20031;-71
2024/03/19 01:17:24;;;;;;;23.13;15.80;;;11.30;99.90;;;;;;2093336;28;20485;-69
2024/03/19 01:18:24;;;;;;;22.83;15.80;;;11.30;99.90;;;;;;2093600;28;20043;-72
2024/03/19 01:19:25;;;;;;;20.63;15.18;;;11.30;99.90;;;;;;2093368;28;20566;-64
2024/03/19 01:20:28;;;;;;;21.95;16.15;;;11.30;99.90;;;;;;2098874;28;20449;-64
2024/03/19 01:21:29;;;;;;;25.23;16.17;;;11.30;99.90;;;;;;2098484;28;20131;-64
2024/03/19 01:22:30;;;;;;;24.25;16.75;;;11.30;99.90;;;;;;2093492;28;20028;-64
2024/03/19 01:23:36;;;;;;;17.15;12.63;;;11.30;99.90;;;;;;2091860;28;20029;-65
2024/03/19 01:24:37;;;;;;;21.50;15.07;;;11.30;99.90;;;;;;2094111;28;20070;-64
2024/03/19 01:25:38;;;;;;;19.85;15.38;;;11.30;99.90;;;;;;2092409;28;20776;-63
2024/03/19 01:26:38;;;;;;;20.98;15.68;;;11.30;99.90;;;;;;2094098;28;20428;-65
2024/03/19 01:27:39;;;;;;;18.35;13.55;;;11.20;99.90;;;;;;2090313;28;20381;-65
2024/03/19 01:28:39;;;;;;;21.48;15.70;;;11.30;99.90;;;;;;2094481;28;20472;-63
2024/03/19 01:29:40;;;;;;;20.83;15.55;;;11.30;99.90;;;;;;2091501;28;20523;-66
2024/03/19 01:30:41;;;;;;;17.75;14.48;;;11.20;99.90;;;;;;2091613;28;20024;-64
2024/03/19 01:31:43;;;;;;;17.92;13.88;;;11.20;99.90;;;;;;2092926;28;20039;-70
2024/03/19 01:32:43;;;;;;;25.70;16.00;;;11.20;99.90;;;;;;2093893;28;20042;-65
2024/03/19 01:33:44;;;;;;;19.60;15.05;;;11.20;99.90;;;;;;2092243;28;20024;-65
2024/03/19 01:34:44;;;;;;;21.98;16.58;;;11.30;99.90;;;;;;2093265;28;20041;-67
2024/03/19 01:35:45;;;;;;;23.10;15.75;;;11.20;99.90;;;;;;2094577;28;20574;-64
2024/03/19 01:36:48;;;;;;;22.77;16.15;;;11.20;99.90;;;;;;2095144;28;20035;-64
2024/03/19 01:37:49;;;;;;;28.17;18.58;;;11.20;99.90;;;;;;2095050;28;20370;-65
2024/03/19 01:38:49;;;;;;;23.95;16.98;;;11.20;99.90;;;;;;2095572;28;20111;-64
2024/03/19 01:39:52;;;;;;;25.42;17.90;;;11.20;99.90;;;;;;2092530;28;20032;-65
2024/03/19 01:40:52;;;;;;;21.25;17.38;;;11.30;99.90;;;;;;2093439;28;20036;-64
2024/03/19 01:41:54;;;;;;;23.23;16.77;;;11.20;99.90;;;;;;2093382;28;20039;-65
2024/03/19 01:42:55;;;;;;;23.52;16.67;;;11.20;99.90;;;;;;2092613;28;20135;-66
2024/03/19 01:43:55;;;;;;;24.33;16.17;;;11.30;99.90;;;;;;2094589;28;20032;-65
2024/03/19 01:45:13;;;;;;;22.02;16.13;;;11.30;99.90;;;;;;2094046;28;20431;-65
2024/03/19 01:46:23;;;;;;;24.25;16.55;;;11.20;99.90;;;;;;2094407;28;20107;-65
2024/03/19 01:47:24;;;;;;;;;;;11.30;99.90;;;;;;2093356;28;20056;-65
2024/03/19 01:48:24;;;;;;;22.38;16.65;;;11.20;99.90;;;;;;2093643;28;19955;-64
2024/03/19 01:49:25;;;;;;;25.92;19.30;;;11.20;99.90;;;;;;2094660;28;20107;-66
2024/03/19 01:50:26;;;;;;;24.27;18.17;;;11.20;99.90;;;;;;2094178;28;20512;-65
2024/03/19 01:51:27;;;;;;;27.70;18.70;;;11.20;99.90;;;;;;2095228;28;20021;-65
2024/03/19 01:52:27;;;;;;;23.92;17.83;;;11.20;99.90;;;;;;2095016;28;20075;-66
2024/03/19 01:53:28;;;;;;;25.25;17.55;;;11.20;99.90;;;;;;2095541;28;20021;-64
2024/03/19 01:54:32;;;;;;;22.92;16.63;;;11.20;99.90;;;;;;2093728;28;20029;-66
2024/03/19 01:55:32;;;;;;;20.70;16.05;;;11.20;99.90;;;;;;2094613;28;20088;-65
2024/03/19 01:56:37;;;;;;;22.25;16.13;;;11.20;99.90;;;;;;2100447;28;20386;-65
2024/03/19 01:57:37;;;;;;;20.30;15.60;;;11.30;99.90;;;;;;2102044;28;20031;-65
2024/03/19 01:58:38;;;;;;;26.75;16.98;;;11.20;99.90;;;;;;2096199;28;20099;-66
2024/03/19 01:59:40;;;;;;;21.92;17.25;;;11.20;99.90;;;;;;2095507;28;20115;-63
2024/03/19 02:00:41;;;;;;;23.58;16.65;;;11.30;99.90;;;;;;2097201;28;20021;-64
2024/03/19 02:01:41;;;;;;;23.85;17.30;;;11.30;99.90;;;;;;2095658;28;20037;-64
2024/03/19 02:02:45;;;;;;;26.58;17.83;;;11.20;99.90;;;;;;2095651;28;20035;-64
2024/03/19 02:03:46;;;;;;;23.30;16.13;;;11.30;99.90;;;;;;2095266;28;20025;-64
2024/03/19 02:04:46;;;;;;;23.90;16.38;;;11.20;99.90;;;;;;2096103;28;20029;-64
2024/03/19 02:05:47;;;;;;;21.23;16.30;;;11.20;99.90;;;;;;2094979;28;20025;-66
2024/03/19 02:06:51;;;;;;;17.15;14.38;;;11.20;99.90;;;;;;2094134;28;20024;-65
2024/03/19 02:07:51;;;;;;;21.75;15.20;;;11.20;99.90;;;;;;2093535;28;20178;-64
2024/03/19 02:09:14;;;;;;;20.75;15.98;;;11.20;99.90;;;;;;2095311;28;20028;-65
2024/03/19 02:10:15;;;;;;;19.90;14.18;;;11.20;99.90;;;;;;2094488;28;20021;-66
2024/03/19 02:11:21;;;;;;;20.20;14.75;;;11.20;99.90;;;;;;2092994;28;20508;-65
2024/03/19 02:12:26;;;;;;;23.25;16.10;;;11.20;99.90;;;;;;2096350;28;20023;-65
2024/03/19 02:13:26;;;;;;;16.05;12.40;;;11.20;99.90;;;;;;2095702;28;20040;-64
2024/03/19 02:14:27;;;;;;;20.27;12.45;;;11.20;99.90;;;;;;2095231;28;20431;-64
2024/03/19 02:15:28;;;;;;;19.35;15.77;;;11.20;99.90;;;;;;2095954;28;20060;-64
2024/03/19 02:16:33;;;;;;;20.90;15.48;;;11.20;99.90;;;;;;2092640;28;20048;-64
2024/03/19 02:17:33;;;;;;;18.95;15.10;;;11.10;99.90;;;;;;2095066;28;20024;-64
2024/03/19 02:18:37;;;;;;;18.42;12.70;;;11.10;99.90;;;;;;2093186;28;20017;-65
2024/03/19 02:19:38;;;;;;;24.80;17.13;;;11.10;99.90;;;;;;2092987;28;20053;-64
2024/03/19 02:20:38;;;;;;;24.45;16.88;;;11.10;99.90;;;;;;2093457;28;20025;-64
2024/03/19 02:21:39;;;;;;;23.35;14.48;;;11.10;99.90;;;;;;2101683;28;20392;-65
2024/03/19 02:22:49;;;;;;;19.17;16.05;;;11.10;99.90;;;;;;2099569;28;20056;-64
2024/03/19 02:23:50;;;;;;;26.65;16.33;;;11.10;99.90;;;;;;2094443;28;20021;-64
2024/03/19 02:24:51;;;;;;;24.35;16.30;;;11.00;99.90;;;;;;2094589;28;20108;-71
2024/03/19 02:25:52;;;;;;;21.05;16.10;;;11.00;99.90;;;;;;2101460;28;20028;-70
2024/03/19 02:26:53;;;;;;;17.95;14.95;;;11.00;99.90;;;;;;2093984;28;20036;-70
2024/03/19 02:27:54;;;;;;;19.48;14.85;;;11.00;99.90;;;;;;2095218;28;20458;-70
2024/03/19 02:28:59;;;;;;;20.30;15.77;;;11.00;99.90;;;;;;2093421;28;20029;-73
2024/03/19 02:29:59;;;;;;;22.10;16.92;;;10.90;99.90;;;;;;2093347;28;20082;-66
2024/03/19 02:31:00;;;;;;;23.60;18.25;;;10.90;99.90;;;;;;2094886;28;20032;-64
2024/03/19 02:32:01;;;;;;;25.63;17.67;;;10.90;99.90;;;;;;2095409;28;20045;-65
2024/03/19 02:33:02;;;;;;;23.88;16.77;;;10.90;99.90;;;;;;2093927;28;20119;-63
2024/03/19 02:34:02;;;;;;;26.08;18.42;;;10.90;99.90;;;;;;2096974;28;20043;-65
2024/03/19 02:35:03;;;;;;;16.90;13.77;;;10.90;99.90;;;;;;2091178;28;20524;-65
2024/03/19 02:36:04;;;;;;;20.92;16.00;;;10.90;99.90;;;;;;2095427;28;20070;-66
2024/03/19 02:37:06;;;;;;;18.92;14.30;;;10.80;99.90;;;;;;2091729;28;20036;-66
2024/03/19 02:38:09;;;;;;;21.88;16.52;;;10.80;99.90;;;;;;2093177;28;20060;-70
2024/03/19 02:39:12;;;;;;;20.67;15.75;;;10.80;99.90;;;;;;2092808;28;20519;-70
2024/03/19 02:40:13;;;;;;;27.48;17.77;;;10.80;99.90;;;;;;2096147;28;20091;-71
2024/03/19 02:41:13;;;;;;;21.80;15.18;;;10.70;99.90;;;;;;2093949;28;20060;-63
2024/03/19 02:42:14;;;;;;;27.95;19.13;;;10.80;99.90;;;;;;2095465;28;20878;-70
2024/03/19 02:43:14;;;;;;;27.48;19.17;;;10.70;99.90;;;;;;2094275;28;20032;-71
2024/03/19 02:44:15;;;;;;;27.65;18.40;;;10.70;99.90;;;;;;2092826;28;20028;-64
2024/03/19 02:45:16;;;;;;;19.95;15.48;;;10.70;99.90;;;;;;2093066;28;20029;-64
2024/03/19 02:46:17;;;;;;;27.30;17.38;;;10.70;99.90;;;;;;2092065;28;20025;-66
2024/03/19 02:47:17;;;;;;;27.98;18.63;;;10.70;99.90;;;;;;2093124;28;20035;-64
2024/03/19 02:48:19;;;;;;;29.08;19.90;;;10.70;99.90;;;;;;2093479;28;20036;-63
2024/03/19 02:49:19;;;;;;;25.30;18.00;;;10.70;99.90;;;;;;2094439;28;20021;-64
2024/03/19 02:50:20;;;;;;;22.90;17.30;;;10.60;99.90;;;;;;2094812;28;20048;-64
2024/03/19 02:51:20;;;;;;;27.02;19.15;;;10.60;99.90;;;;;;2095385;28;20020;-64
2024/03/19 02:52:23;;;;;;;26.45;17.65;;;10.60;99.90;;;;;;2094693;28;20453;-65
2024/03/19 02:53:26;;;;;;;25.92;18.90;;;10.60;99.90;;;;;;2093562;28;20016;-65
2024/03/19 02:54:26;;;;;;;20.45;13.85;;;10.60;99.90;;;;;;2094800;28;20138;-66
2024/03/19 02:55:27;;;;;;;27.67;20.40;;;10.60;99.90;;;;;;2096291;28;20427;-65
2024/03/19 02:56:28;;;;;;;26.85;18.02;;;10.60;99.90;;;;;;2095745;28;20027;-71
2024/03/19 02:57:29;;;;;;;31.63;18.92;;;10.50;99.90;;;;;;2092258;28;20094;-71
2024/03/19 02:58:29;;;;;;;24.63;19.58;;;10.50;99.90;;;;;;2095049;28;20441;-71
2024/03/19 02:59:30;;;;;;;28.73;18.70;;;10.50;99.90;;;;;;2095559;28;20024;-72
2024/03/19 03:00:31;;;;;;;23.17;17.02;;;10.50;99.90;;;;;;2093215;28;20029;-65
2024/03/19 03:01:32;;;;;;;30.98;19.42;;;10.50;99.90;;;;;;2092397;28;20393;-65
2024/03/19 03:02:32;;;;;;;26.55;18.88;;;10.50;99.90;;;;;;2093178;28;20158;-65
2024/03/19 03:03:33;;;;;;;22.73;16.35;;;10.50;99.90;;;;;;2094928;28;20032;-72
2024/03/19 03:04:34;;;;;;;21.75;16.17;;;10.50;99.90;;;;;;2092959;28;20101;-71
2024/03/19 03:05:35;;;;;;;24.90;18.50;;;10.40;99.90;;;;;;2093555;28;20016;-64
2024/03/19 03:06:36;;;;;;;26.90;17.88;;;10.40;99.90;;;;;;2093966;28;20029;-71
2024/03/19 03:07:36;;;;;;;25.52;18.52;;;10.40;99.90;;;;;;2092481;28;20591;-70
2024/03/19 03:08:39;;;;;;;23.45;16.77;;;10.40;99.90;;;;;;2093648;28;20025;-63
2024/03/19 03:09:40;;;;;;;23.88;16.23;;;10.40;99.90;;;;;;2093542;28;20017;-63
2024/03/19 03:10:41;;;;;;;20.25;13.77;;;10.40;99.90;;;;;;2092430;28;20032;-65
2024/03/19 03:11:41;;;;;;;21.13;15.60;;;10.40;99.90;;;;;;2093316;28;20491;-64
2024/03/19 03:12:42;;;;;;;26.23;17.30;;;10.40;99.90;;;;;;2093840;28;20055;-63
2024/03/19 03:13:43;;;;;;;24.83;18.23;;;10.40;99.90;;;;;;2095049;28;20024;-65
2024/03/19 03:14:44;;;;;;;28.83;18.98;;;10.40;99.90;;;;;;2095514;28;20116;-64
2024/03/19 03:15:44;;;;;;;29.25;18.63;;;10.40;99.90;;;;;;2094033;28;20495;-65
2024/03/19 03:16:45;;;;;;;24.63;18.45;;;10.40;99.90;;;;;;2092809;28;20628;-66
2024/03/19 03:17:48;;;;;;;30.83;19.38;;;10.40;99.90;;;;;;2092619;28;20033;-65
2024/03/19 03:18:49;;;;;;;25.45;17.83;;;10.40;99.90;;;;;;2094005;28;20560;-65
2024/03/19 03:19:50;;;;;;;25.35;19.13;;;10.40;99.90;;;;;;2094138;28;20533;-65
2024/03/19 03:20:50;;;;;;;26.05;17.55;;;10.40;99.90;;;;;;2093753;28;20377;-65
2024/03/19 03:21:51;;;;;;;28.98;18.92;;;10.40;99.90;;;;;;2091123;28;20061;-65
2024/03/19 03:22:52;;;;;;;23.88;18.30;;;10.30;99.90;;;;;;2094947;28;20021;-66
2024/03/19 03:23:52;;;;;;;26.63;18.58;;;10.30;99.90;;;;;;2094086;28;20828;-65
2024/03/19 03:24:54;;;;;;;27.17;19.42;;;10.30;99.90;;;;;;2093720;28;20013;-67
2024/03/19 03:25:56;;;;;;;25.48;17.70;;;10.30;99.90;;;;;;2102749;28;20036;-67
2024/03/19 03:27:00;;;;;;;25.80;17.80;;;10.30;99.90;;;;;;2100329;28;20027;-65
2024/03/19 03:28:00;;;;;;;26.20;18.45;;;10.40;99.90;;;;;;2095406;28;20036;-65
2024/03/19 03:29:01;;;;;;;24.05;18.20;;;10.40;99.90;;;;;;2094323;28;20466;-65
2024/03/19 03:30:03;;;;;;;24.92;18.48;;;10.40;99.90;;;;;;2092135;28;20063;-71
2024/03/19 03:31:06;;;;;;;29.77;17.95;;;10.40;99.90;;;;;;2094428;28;20035;-71
2024/03/19 03:32:07;;;;;;;23.63;17.85;;;10.40;99.90;;;;;;2093664;28;20032;-72
2024/03/19 03:33:07;;;;;;;26.90;18.30;;;10.40;99.90;;;;;;2092582;28;20036;-72
2024/03/19 03:34:08;;;;;;;25.25;17.00;;;10.40;99.90;;;;;;2094301;28;20089;-65
2024/03/19 03:35:27;;;;;;;24.23;17.58;;;10.40;99.90;;;;;;2092931;28;20032;-65
2024/03/19 03:36:28;;;;;;;16.52;13.23;;;10.40;99.90;;;;;;2093732;28;20373;-65
2024/03/19 03:37:29;;;;;;;18.00;14.55;;;10.30;99.90;;;;;;2095513;28;20054;-64
2024/03/19 03:38:30;;;;;;;21.42;16.25;;;10.30;99.90;;;;;;2092827;28;20055;-66
2024/03/19 03:39:30;;;;;;;23.83;16.85;;;10.40;99.90;;;;;;2091995;28;20028;-71
2024/03/19 03:40:31;;;;;;;22.88;16.63;;;10.40;99.90;;;;;;2093214;28;20032;-65
2024/03/19 03:41:32;;;;;;;21.45;15.75;;;10.30;99.90;;;;;;2093555;28;20075;-71
2024/03/19 03:42:33;;;;;;;23.55;17.67;;;10.40;99.90;;;;;;2094699;28;20461;-64
2024/03/19 03:43:36;;;;;;;23.67;17.75;;;10.40;99.90;;;;;;2092618;28;20535;-65
2024/03/19 03:44:37;;;;;;;19.88;14.52;;;10.40;99.90;;;;;;2094070;28;20447;-64
2024/03/19 03:45:37;;;;;;;23.20;16.02;;;10.40;99.90;;;;;;2092577;28;20374;-64
2024/03/19 03:46:38;;;;;;;16.33;13.10;;;10.40;99.90;;;;;;2094290;28;20063;-64
2024/03/19 03:47:39;;;;;;;21.42;16.95;;;10.40;99.90;;;;;;2091388;28;20025;-64
2024/03/19 03:48:40;;;;;;;24.42;17.13;;;10.40;99.90;;;;;;2091560;28;20504;-64
2024/03/19 03:49:40;;;;;;;25.02;16.85;;;10.40;99.90;;;;;;2094222;28;20402;-65
2024/03/19 03:50:41;;;;;;;25.27;17.58;;;10.40;99.90;;;;;;2094327;28;20042;-65
2024/03/19 03:51:42;;;;;;;21.77;17.00;;;10.40;99.90;;;;;;2092724;28;20038;-64
2024/03/19 03:52:43;;;;;;;22.50;17.00;;;10.40;99.90;;;;;;2094707;28;20484;-65
2024/03/19 03:53:44;;;;;;;19.23;15.07;;;10.40;99.90;;;;;;2093784;28;20444;-65
2024/03/19 03:54:44;;;;;;;25.63;15.25;;;10.40;99.90;;;;;;2091446;28;20104;-72
2024/03/19 03:55:45;;;;;;;19.83;14.02;;;10.40;99.90;;;;;;2095297;28;20829;-72
2024/03/19 03:56:47;;;;;;;18.80;14.43;;;10.40;99.90;;;;;;2092703;28;20059;-65
2024/03/19 03:57:47;;;;;;;21.77;15.70;;;10.40;99.90;;;;;;2092305;28;20067;-64
2024/03/19 03:58:48;;;;;;;19.38;15.43;;;10.40;99.90;;;;;;2095643;28;20067;-64
2024/03/19 03:59:51;;;;;;;23.10;15.80;;;10.40;99.90;;;;;;2094254;28;20043;-64
2024/03/19 04:00:52;;;;;;;18.48;14.02;;;10.40;99.90;;;;;;2093981;28;20028;-65
2024/03/19 04:01:53;;;;;;;18.40;13.30;;;10.40;99.90;;;;;;2093133;28;20021;-64
2024/03/19 04:02:54;;;;;;;22.45;16.38;;;10.40;99.90;;;;;;2092985;28;20062;-73
2024/03/19 04:03:55;;;;;;;22.60;16.30;;;10.40;99.90;;;;;;2091025;28;20054;-70
2024/03/19 04:04:55;;;;;;;23.00;16.13;;;10.40;99.90;;;;;;2093858;28;20455;-71
2024/03/19 04:05:56;;;;;;;24.70;17.17;;;10.40;99.90;;;;;;2094486;28;20040;-69
2024/03/19 04:06:56;;;;;;;23.13;16.95;;;10.40;99.90;;;;;;2093940;28;20044;-73
2024/03/19 04:07:57;;;;;;;22.73;16.73;;;10.40;99.90;;;;;;2093083;28;20033;-70
2024/03/19 04:08:59;;;;;;;23.33;16.38;;;10.40;99.90;;;;;;2093766;28;20037;-71
2024/03/19 04:10:00;;;;;;;26.15;16.67;;;10.40;99.90;;;;;;2091795;28;20123;-71
2024/03/19 04:11:04;;;;;;;20.15;15.55;;;10.40;99.90;;;;;;2094819;28;20025;-71
2024/03/19 04:12:05;;;;;;;25.58;16.90;;;10.40;99.90;;;;;;2093689;28;20555;-72
2024/03/19 04:13:05;;;;;;;20.40;15.75;;;10.40;99.90;;;;;;2093564;28;20064;-70
2024/03/19 04:14:06;;;;;;;22.75;16.27;;;10.40;99.90;;;;;;2090872;28;20025;-71
2024/03/19 04:15:09;;;;;;;22.33;15.63;;;10.40;99.90;;;;;;2093274;28;20070;-71
2024/03/19 04:16:09;;;;;;;24.58;16.20;;;10.40;99.90;;;;;;2091053;28;20074;-71
2024/03/19 04:17:12;;;;;;;18.85;15.02;;;10.40;99.90;;;;;;2095002;28;20121;-72
2024/03/19 04:18:14;;;;;;;20.92;15.65;;;10.40;99.90;;;;;;2091913;28;20033;-71
2024/03/19 04:19:15;;;;;;;20.65;15.43;;;10.40;99.90;;;;;;2091502;28;20049;-70
2024/03/19 04:20:16;;;;;;;23.50;16.45;;;10.40;99.90;;;;;;2092185;28;20036;-73
2024/03/19 04:21:16;;;;;;;18.75;15.20;;;10.40;99.90;;;;;;2095416;28;20072;-71
2024/03/19 04:22:17;;;;;;;22.80;15.27;;;10.40;99.90;;;;;;2095610;28;20066;-73
2024/03/19 04:23:17;;;;;;;22.73;15.68;;;10.40;99.90;;;;;;2093493;28;20091;-72
2024/03/19 04:24:18;;;;;;;16.00;12.50;;;10.40;99.90;;;;;;2092366;28;20043;-71
2024/03/19 04:25:18;;;;;;;20.13;15.32;;;10.40;99.90;;;;;;2093784;28;20071;-71
2024/03/19 04:26:19;;;;;;;21.17;16.30;;;10.40;99.90;;;;;;2093731;28;20031;-70
2024/03/19 04:27:20;;;;;;;27.38;17.73;;;10.40;99.90;;;;;;2095375;28;20029;-71
2024/03/19 04:28:20;;;;;;;28.90;17.75;;;10.40;99.90;;;;;;2092738;28;20157;-73
2024/03/19 04:29:21;;;;;;;19.75;14.65;;;10.40;99.90;;;;;;2092072;28;20028;-72
2024/03/19 04:30:23;;;;;;;23.63;15.40;;;10.40;99.90;;;;;;2094317;28;20068;-72
2024/03/19 04:31:23;;;;;;;23.15;15.68;;;10.40;99.90;;;;;;2093890;28;20028;-71
2024/03/19 04:32:24;;;;;;;20.77;15.00;;;10.40;99.90;;;;;;2092231;28;20044;-72
2024/03/19 04:33:24;;;;;;;18.52;13.02;;;10.40;99.90;;;;;;2092084;28;20025;-71
2024/03/19 04:34:25;;;;;;;20.95;15.68;;;10.40;99.90;;;;;;2092860;28;20062;-71
2024/03/19 04:35:25;;;;;;;23.48;15.65;;;10.40;99.90;;;;;;2092358;28;20591;-69
2024/03/19 04:36:26;;;;;;;18.10;13.00;;;10.40;99.90;;;;;;2092040;28;20086;-70
2024/03/19 04:37:27;;;;;;;16.05;12.30;;;10.40;99.90;;;;;;2093911;28;20400;-71
2024/03/19 04:38:28;;;;;;;18.05;14.35;;;10.40;99.90;;;;;;2093283;28;20029;-71
2024/03/19 04:39:29;;;;;;;20.98;14.77;;;10.40;99.90;;;;;;2094217;28;20021;-72
2024/03/19 04:40:32;;;;;;;21.30;15.93;;;10.40;99.90;;;;;;2094417;28;20021;-72
2024/03/19 04:41:33;;;;;;;22.33;14.45;;;10.40;99.90;;;;;;2092091;28;20052;-72
2024/03/19 04:42:34;;;;;;;25.73;17.02;;;10.40;99.90;;;;;;2101117;28;20564;-71
2024/03/19 04:43:35;;;;;;;21.40;15.50;;;10.40;99.90;;;;;;2101421;28;20516;-71
2024/03/19 04:44:35;;;;;;;18.83;15.70;;;10.30;99.90;;;;;;2094749;28;20031;-70
2024/03/19 04:45:36;;;;;;;19.95;14.52;;;10.40;99.90;;;;;;2095053;28;20040;-70
2024/03/19 04:46:36;;;;;;;21.00;14.68;;;10.40;99.90;;;;;;2093459;28;20528;-72
2024/03/19 04:47:37;;;;;;;23.20;15.25;;;10.40;99.90;;;;;;2101539;28;20105;-72
2024/03/19 04:48:37;;;;;;;20.63;15.18;;;10.40;99.90;;;;;;2101381;28;20039;-69
2024/03/19 04:49:38;;;;;;;16.10;12.27;;;10.40;99.90;;;;;;2094037;28;20024;-71
2024/03/19 04:50:39;;;;;;;18.13;13.93;;;10.40;99.90;;;;;;2093097;28;20485;-73
2024/03/19 04:51:39;;;;;;;20.02;13.15;;;10.30;99.90;;;;;;2093422;28;20024;-70
2024/03/19 04:52:40;;;;;;;17.92;12.95;;;10.40;99.90;;;;;;2091966;28;20473;-70
2024/03/19 04:53:44;;;;;;;19.42;14.98;;;10.30;99.90;;;;;;2093119;28;20032;-71
2024/03/19 04:54:44;;;;;;;20.60;14.13;;;10.40;99.90;;;;;;2091338;28;20031;-71
2024/03/19 04:55:45;;;;;;;18.63;14.32;;;10.40;99.90;;;;;;2095555;28;20024;-72
2024/03/19 04:56:48;;;;;;;24.63;15.90;;;10.40;99.90;;;;;;2094494;28;20028;-71
2024/03/19 04:57:52;;;;;;;17.83;15.00;;;10.30;99.90;;;;;;2093202;28;20029;-71
2024/03/19 04:58:52;;;;;;;22.40;15.15;;;10.40;99.90;;;;;;2092078;28;20047;-71
2024/03/19 04:59:53;;;;;;;19.75;15.55;;;10.30;99.90;;;;;;2092643;28;20020;-70
2024/03/19 05:00:54;;;;;;;22.13;15.07;;;10.30;99.90;;;;;;2094005;28;20028;-71
2024/03/19 05:01:54;;;;;;;24.08;15.55;;;10.30;99.90;;;;;;2091465;28;20057;-70
2024/03/19 05:02:55;;;;;;;23.38;15.52;;;10.30;99.90;;;;;;2091801;28;20031;-71
2024/03/19 05:03:56;;;;;;;21.70;14.38;;;10.30;99.90;;;;;;2092734;28;20342;-69
2024/03/19 05:04:56;;;;;;;25.05;14.93;;;10.30;99.90;;;;;;2091364;28;20025;-71
2024/03/19 05:05:57;;;;;;;16.83;13.95;;;10.30;99.90;;;;;;2091883;28;20031;-71
2024/03/19 05:06:58;;;;;;;20.00;15.10;;;10.30;99.90;;;;;;2093065;28;20025;-71
2024/03/19 05:07:59;;;;;;;17.98;14.23;;;10.30;99.90;;;;;;2092347;28;20113;-71
2024/03/19 05:08:59;;;;;;;18.75;13.35;;;10.30;99.90;;;;;;2093892;28;20539;-74
2024/03/19 05:10:00;;;;;;;19.33;13.10;;;10.30;99.90;;;;;;2094042;28;20699;-70
2024/03/19 05:11:00;;;;;;;19.83;14.05;;;10.40;99.90;;;;;;2092152;28;20029;-70
2024/03/19 05:12:01;;;;;;;18.73;14.73;;;10.30;99.90;;;;;;2096659;28;20504;-71